Time;durP1;ratioP1;P1;durP2;ratioP2;P2;SDS_P1;SDS_P2;PMS_P1;PMS_P2;Temp;Humidity;BMP_temperature;BMP_pressure;BME280_temperature;BME280_humidity;BME280_pressure;Samples;Min_cycle;Max_cycle;Signal;HPM_P1;HPM_P2
2022/12/30 00:01:03;;;;;;;7.30;4.90;;;1.40;76.90;;;;;;5022396;28;20449;-64
2022/12/30 00:03:29;;;;;;;8.03;5.23;;;1.30;77.10;;;;;;5024805;28;20449;-63
2022/12/30 00:05:54;;;;;;;7.67;5.23;;;1.20;77.30;;;;;;5018444;28;20486;-63
2022/12/30 00:11:04;;;;;;;8.17;5.13;;;1.20;77.50;;;;;;5034321;28;20248;-63
2022/12/30 00:33:43;;;;;;;7.37;5.20;;;1.00;78.70;;;;;;5019329;28;20484;-64
2022/12/30 00:36:09;;;;;;;8.13;4.93;;;0.90;78.80;;;;;;5027126;28;20500;-64
2022/12/30 00:38:35;;;;;;;6.33;4.37;;;0.80;79.40;;;;;;5027423;28;20455;-64
2022/12/30 00:43:44;;;;;;;7.17;4.20;;;0.90;79.20;;;;;;5040576;28;20205;-64
2022/12/30 00:46:11;;;;;;;7.60;5.00;;;0.80;79.50;;;;;;5017113;28;20466;-64
2022/12/30 00:56:49;;;;;;;7.30;4.80;;;1.00;79.80;;;;;;5004676;28;20417;-64
2022/12/30 00:59:15;;;;;;;6.03;4.33;;;1.00;80.00;;;;;;5018984;28;20437;-64
2022/12/30 01:01:41;;;;;;;6.77;3.93;;;0.90;80.00;;;;;;5033944;28;20202;-63
2022/12/30 01:04:07;;;;;;;8.77;4.60;;;0.80;80.00;;;;;;5027745;28;20195;-64
2022/12/30 01:06:33;;;;;;;6.70;4.37;;;0.80;80.00;;;;;;5021484;28;20236;-64
2022/12/30 01:08:58;;;;;;;6.30;4.53;;;0.80;80.00;;;;;;5020726;28;20488;-64
2022/12/30 01:11:24;;;;;;;6.73;3.87;;;0.80;79.90;;;;;;5032950;28;20201;-64
2022/12/30 01:13:51;;;;;;;6.43;3.97;;;0.80;79.90;;;;;;5024804;28;20191;-64
2022/12/30 01:16:17;;;;;;;5.90;4.50;;;0.80;79.80;;;;;;5024288;28;20245;-64
2022/12/30 01:18:43;;;;;;;6.90;5.00;;;0.80;79.90;;;;;;5023908;28;20435;-63
2022/12/30 01:21:09;;;;;;;7.47;4.73;;;0.80;79.70;;;;;;5015220;28;20443;-63
2022/12/30 01:23:35;;;;;;;8.33;4.93;;;0.80;79.90;;;;;;5012116;28;20986;-64
2022/12/30 01:26:06;;;;;;;5.83;4.20;;;0.70;80.00;;;;;;5004898;28;20918;-64
2022/12/30 01:28:34;;;;;;;8.00;5.00;;;0.80;80.10;;;;;;5029243;28;20795;-64
2022/12/30 01:31:03;;;;;;;8.00;4.40;;;0.80;80.50;;;;;;5029475;28;20426;-64
2022/12/30 01:33:29;;;;;;;5.47;4.27;;;0.80;80.60;;;;;;5021087;28;20433;-64
2022/12/30 01:35:54;;;;;;;7.87;4.53;;;0.80;80.70;;;;;;5003253;28;20432;-64
2022/12/30 01:38:20;;;;;;;8.77;4.70;;;0.60;80.80;;;;;;5026289;28;20206;-64
2022/12/30 01:40:46;;;;;;;8.57;5.07;;;0.60;80.50;;;;;;5024075;28;20278;-64
2022/12/30 01:43:13;;;;;;;6.53;4.53;;;0.60;80.40;;;;;;5031349;28;20195;-64
2022/12/30 01:45:43;;;;;;;6.03;4.27;;;0.60;80.30;;;;;;5029467;28;20247;-64
2022/12/30 01:48:26;;;;;;;6.93;3.90;;;0.60;80.40;;;;;;5031652;28;20462;-64
2022/12/30 01:51:02;;;;;;;7.50;4.53;;;0.60;80.50;;;;;;5042302;28;20446;-64
2022/12/30 01:53:39;;;;;;;6.77;4.00;;;0.60;80.50;;;;;;5036022;28;20468;-64
2022/12/30 01:56:26;;;;;;;6.80;4.00;;;0.60;80.50;;;;;;5039203;28;20484;-64
2022/12/30 01:59:14;;;;;;;6.00;4.00;;;0.60;80.50;;;;;;5032994;28;20559;-64
2022/12/30 02:01:41;;;;;;;6.67;4.13;;;0.60;80.50;;;;;;5036023;28;20488;-64
2022/12/30 02:04:15;;;;;;;7.03;4.07;;;0.60;80.70;;;;;;5016548;28;20488;-64
2022/12/30 02:07:04;;;;;;;7.57;5.13;;;0.60;80.80;;;;;;5030175;28;20483;-63
2022/12/30 02:09:31;;;;;;;6.77;4.37;;;0.50;81.00;;;;;;5031195;28;20428;-64
2022/12/30 02:11:59;;;;;;;5.53;4.00;;;0.50;81.00;;;;;;5018591;28;20953;-64
2022/12/30 02:14:27;;;;;;;7.87;3.83;;;0.50;80.90;;;;;;5026220;28;20429;-64
2022/12/30 02:17:18;;;;;;;5.37;4.33;;;0.50;80.90;;;;;;5042642;28;20437;-64
2022/12/30 02:20:02;;;;;;;6.17;4.20;;;0.50;80.80;;;;;;5028607;28;20434;-64
2022/12/30 02:22:58;;;;;;;6.63;4.50;;;0.50;81.00;;;;;;5030767;28;20430;-64
2022/12/30 02:25:42;;;;;;;7.30;5.07;;;0.50;81.30;;;;;;5035452;28;20444;-64
2022/12/30 02:28:20;;;;;;;6.27;4.50;;;0.40;81.70;;;;;;5034660;28;20466;-64
2022/12/30 02:30:48;;;;;;;7.73;4.43;;;0.50;81.60;;;;;;5022488;28;20430;-64
2022/12/30 02:33:24;;;;;;;5.70;4.43;;;0.50;81.40;;;;;;5017828;28;20452;-64
2022/12/30 02:36:22;;;;;;;7.07;4.57;;;0.50;81.40;;;;;;5034674;28;20426;-64
2022/12/30 02:39:14;;;;;;;4.73;3.60;;;0.60;81.40;;;;;;5035059;28;20441;-64
2022/12/30 02:44:39;;;;;;;8.90;4.70;;;0.60;82.10;;;;;;5021384;28;20440;-64
2022/12/30 02:47:23;;;;;;;8.47;3.80;;;0.70;82.00;;;;;;5032425;28;20461;-64
2022/12/30 02:52:42;;;;;;;6.33;4.10;;;0.80;81.90;;;;;;5016694;28;20425;-64
2022/12/30 02:55:08;;;;;;;4.20;3.37;;;0.90;81.80;;;;;;5025033;28;20450;-64
2022/12/30 02:57:35;;;;;;;4.07;2.63;;;1.00;81.80;;;;;;5021375;28;20491;-64
2022/12/30 03:03:59;;;;;;;5.03;3.87;;;1.00;81.70;;;;;;5014918;28;20481;-64
2022/12/30 03:07:00;;;;;;;6.77;4.20;;;1.10;81.80;;;;;;5011862;28;20500;-64
2022/12/30 03:11:12;;;;;;;7.07;4.37;;;1.10;81.80;;;;;;5011744;28;20470;-64
2022/12/30 03:12:39;;;;;;;7.47;4.30;;;1.10;81.50;;;;;;5017953;28;20584;-64
2022/12/30 03:15:14;;;;;;;9.93;4.93;;;1.10;81.60;;;;;;5027592;28;20441;-64
2022/12/30 03:17:40;;;;;;;5.80;3.70;;;1.10;81.50;;;;;;5032265;28;20429;-64
2022/12/30 03:20:15;;;;;;;4.50;3.53;;;1.10;81.40;;;;;;5041828;28;20468;-64
2022/12/30 03:28:16;;;;;;;5.13;3.83;;;1.10;81.40;;;;;;5025930;28;20492;-64
2022/12/30 03:30:47;;;;;;;5.97;3.70;;;1.10;81.30;;;;;;5028124;28;20429;-64
2022/12/30 03:33:13;;;;;;;7.43;4.13;;;1.10;81.20;;;;;;5034804;28;20442;-63
2022/12/30 03:35:47;;;;;;;5.97;4.27;;;1.10;81.10;;;;;;5013637;28;20434;-64
2022/12/30 03:38:17;;;;;;;5.40;3.90;;;1.00;81.10;;;;;;5013254;28;20462;-64
2022/12/30 03:40:43;;;;;;;5.47;3.60;;;1.00;81.20;;;;;;5021450;28;20426;-64
2022/12/30 03:43:10;;;;;;;5.27;3.43;;;1.00;81.10;;;;;;5015713;28;20450;-64
2022/12/30 03:45:36;;;;;;;7.23;4.07;;;1.00;81.10;;;;;;5020664;28;20462;-64
2022/12/30 03:48:02;;;;;;;6.57;3.57;;;1.00;81.00;;;;;;5020080;28;20470;-64
2022/12/30 03:50:28;;;;;;;4.43;3.73;;;1.00;81.10;;;;;;5013386;28;20515;-65
2022/12/30 03:52:53;;;;;;;6.20;4.13;;;1.00;81.20;;;;;;5013240;28;20188;-64
2022/12/30 03:55:19;;;;;;;6.30;4.30;;;1.00;81.10;;;;;;5014698;28;20195;-64
2022/12/30 03:57:45;;;;;;;4.37;3.17;;;1.00;81.20;;;;;;4999524;28;20274;-64
2022/12/30 04:00:11;;;;;;;7.17;4.47;;;1.00;81.20;;;;;;5020163;28;20864;-65
2022/12/30 04:02:38;;;;;;;5.00;3.60;;;1.00;81.10;;;;;;5030752;28;20195;-64
2022/12/30 04:05:05;;;;;;;5.67;3.77;;;0.90;81.40;;;;;;5014347;28;20437;-65
2022/12/30 04:07:31;;;;;;;6.50;3.73;;;1.00;81.40;;;;;;5004080;28;20570;-64
2022/12/30 04:09:57;;;;;;;6.23;4.17;;;1.00;81.40;;;;;;5015581;28;20513;-64
2022/12/30 04:12:23;;;;;;;5.00;3.83;;;1.00;81.50;;;;;;5029594;28;20492;-64
2022/12/30 04:14:48;;;;;;;5.73;3.53;;;1.00;81.40;;;;;;5017282;28;20192;-64
2022/12/30 04:17:14;;;;;;;5.43;3.87;;;1.00;81.50;;;;;;5029229;28;20194;-64
2022/12/30 04:19:40;;;;;;;4.90;3.60;;;1.00;81.50;;;;;;5020742;28;20199;-63
2022/12/30 04:22:06;;;;;;;5.10;3.90;;;1.00;81.60;;;;;;5029671;28;20233;-64
2022/12/30 04:24:31;;;;;;;3.90;3.10;;;1.00;81.60;;;;;;5021894;28;20224;-64
2022/12/30 04:26:57;;;;;;;5.63;3.87;;;1.00;81.60;;;;;;5011402;28;20250;-64
2022/12/30 04:29:23;;;;;;;6.73;3.80;;;1.10;81.60;;;;;;5025855;28;20195;-64
2022/12/30 04:31:48;;;;;;;4.57;3.50;;;1.10;81.50;;;;;;5019936;28;20191;-64
2022/12/30 04:34:14;;;;;;;5.57;3.93;;;1.00;81.80;;;;;;5026312;28;20187;-64
2022/12/30 04:36:42;;;;;;;4.57;3.30;;;1.10;81.70;;;;;;5032375;28;20229;-64
2022/12/30 04:39:08;;;;;;;4.60;3.60;;;1.10;81.60;;;;;;5019952;28;20462;-64
2022/12/30 04:41:33;;;;;;;5.60;3.80;;;1.10;81.40;;;;;;5019030;28;20448;-64
2022/12/30 04:44:01;;;;;;;5.37;3.90;;;1.10;81.50;;;;;;5016340;28;20442;-64
2022/12/30 04:46:28;;;;;;;4.87;3.60;;;1.10;81.50;;;;;;5024816;28;20227;-64
2022/12/30 04:48:54;;;;;;;5.03;3.43;;;1.10;81.40;;;;;;5013076;28;20430;-64
2022/12/30 04:51:19;;;;;;;4.43;3.43;;;1.10;81.40;;;;;;5029216;28;20521;-64
2022/12/30 04:53:45;;;;;;;6.10;4.20;;;1.00;81.60;;;;;;5027941;28;20196;-64
2022/12/30 04:56:12;;;;;;;5.80;4.03;;;1.00;81.70;;;;;;5032049;28;20206;-64
2022/12/30 04:58:38;;;;;;;4.20;3.13;;;1.00;81.80;;;;;;5015494;28;20196;-64
2022/12/30 05:01:04;;;;;;;5.00;3.73;;;1.10;81.90;;;;;;5046566;28;20437;-64
2022/12/30 05:03:30;;;;;;;7.13;3.67;;;1.10;81.80;;;;;;5031147;28;20510;-64
2022/12/30 05:05:56;;;;;;;6.13;3.80;;;1.00;81.80;;;;;;5009987;28;20570;-63
2022/12/30 05:08:22;;;;;;;5.23;3.50;;;1.00;81.60;;;;;;5016653;28;20202;-63
2022/12/30 05:10:47;;;;;;;5.40;3.70;;;1.00;81.70;;;;;;5018750;28;20205;-64
2022/12/30 05:13:13;;;;;;;5.50;3.53;;;1.00;81.60;;;;;;5018642;28;20455;-64
2022/12/30 05:15:40;;;;;;;5.30;3.43;;;1.00;81.60;;;;;;5012489;28;20199;-64
2022/12/30 05:18:05;;;;;;;4.97;3.67;;;1.00;81.60;;;;;;5034008;28;20218;-64
2022/12/30 05:20:31;;;;;;;6.20;3.83;;;1.10;81.60;;;;;;5016603;28;20478;-65
2022/12/30 05:22:57;;;;;;;5.77;3.50;;;1.10;81.50;;;;;;5015972;28;20303;-64
2022/12/30 05:28:08;;;;;;;7.20;3.97;;;1.10;81.60;;;;;;5030267;28;20238;-64
2022/12/30 05:30:33;;;;;;;4.53;3.83;;;1.10;81.50;;;;;;5032463;28;20524;-63
2022/12/30 05:32:59;;;;;;;5.20;3.73;;;1.10;82.30;;;;;;5015811;28;20468;-63
2022/12/30 05:35:25;;;;;;;6.67;4.50;;;1.10;82.20;;;;;;5019095;28;20246;-64
2022/12/30 05:37:50;;;;;;;5.40;3.73;;;1.10;82.20;;;;;;5024531;28;20194;-64
2022/12/30 05:40:16;;;;;;;5.97;3.83;;;1.10;82.10;;;;;;5003672;28;20206;-64
2022/12/30 05:42:42;;;;;;;4.10;3.33;;;1.10;82.10;;;;;;5007489;28;20657;-64
2022/12/30 05:45:08;;;;;;;4.87;3.77;;;1.20;82.00;;;;;;5013278;28;20241;-64
2022/12/30 05:47:34;;;;;;;5.93;3.90;;;1.20;81.90;;;;;;5014433;28;20229;-64
2022/12/30 05:50:00;;;;;;;6.33;4.33;;;1.40;81.80;;;;;;5006109;28;20441;-64
2022/12/30 05:52:27;;;;;;;4.60;3.07;;;1.40;81.70;;;;;;5009458;28;20256;-64
2022/12/30 05:54:53;;;;;;;4.77;4.03;;;1.40;81.70;;;;;;5024460;28;20229;-64
2022/12/30 05:57:19;;;;;;;5.63;3.70;;;1.50;81.70;;;;;;5041494;28;20468;-64
2022/12/30 05:59:45;;;;;;;4.90;3.50;;;1.50;81.60;;;;;;5019050;28;20206;-64
2022/12/30 06:02:10;;;;;;;5.40;3.60;;;1.60;81.50;;;;;;4998940;28;20192;-64
2022/12/30 06:04:36;;;;;;;3.73;2.93;;;1.60;81.50;;;;;;5021704;28;20259;-64
2022/12/30 06:07:02;;;;;;;6.17;3.87;;;1.60;81.50;;;;;;5008818;28;20239;-64
2022/12/30 06:09:27;;;;;;;6.43;3.70;;;1.70;81.50;;;;;;5021887;28;20205;-64
2022/12/30 06:11:53;;;;;;;4.73;3.27;;;1.70;81.20;;;;;;5014619;28;20271;-64
2022/12/30 06:14:20;;;;;;;5.87;3.87;;;1.70;81.20;;;;;;5021333;28;20199;-65
2022/12/30 06:16:46;;;;;;;5.40;3.67;;;1.70;81.00;;;;;;5038828;28;20273;-64
2022/12/30 06:19:12;;;;;;;6.30;4.47;;;1.70;81.00;;;;;;5019494;28;20522;-64
2022/12/30 06:21:37;;;;;;;5.13;3.80;;;1.70;81.00;;;;;;5016278;28;20232;-64
2022/12/30 06:24:03;;;;;;;7.20;4.93;;;1.70;81.00;;;;;;5022103;28;20198;-64
2022/12/30 06:26:29;;;;;;;5.83;4.33;;;1.70;80.80;;;;;;5004172;28;20230;-64
2022/12/30 06:28:55;;;;;;;7.70;3.77;;;1.70;80.90;;;;;;5019139;28;20436;-64
2022/12/30 06:31:20;;;;;;;4.97;3.53;;;1.70;80.70;;;;;;5028037;28;20191;-63
2022/12/30 06:33:46;;;;;;;4.43;3.50;;;1.60;80.90;;;;;;5020280;28;20204;-63
2022/12/30 06:36:12;;;;;;;5.07;3.53;;;1.60;81.00;;;;;;5013608;28;20203;-63
2022/12/30 06:38:38;;;;;;;6.00;3.80;;;1.70;81.00;;;;;;5022194;28;20187;-63
2022/12/30 06:41:04;;;;;;;6.33;4.80;;;1.70;81.00;;;;;;5020774;28;20184;-64
2022/12/30 06:43:30;;;;;;;6.07;4.13;;;1.60;80.80;;;;;;5023575;28;20199;-64
2022/12/30 06:45:56;;;;;;;4.57;3.80;;;1.60;81.10;;;;;;5029773;28;20450;-64
2022/12/30 06:48:21;;;;;;;7.23;4.27;;;1.60;80.90;;;;;;5008330;28;20218;-64
2022/12/30 06:50:47;;;;;;;6.57;4.60;;;1.60;81.20;;;;;;5026868;28;20195;-64
2022/12/30 06:53:14;;;;;;;5.77;4.53;;;1.60;81.10;;;;;;5013930;28;20196;-64
2022/12/30 06:55:40;;;;;;;6.73;4.20;;;1.60;81.20;;;;;;5019209;28;20192;-64
2022/12/30 06:58:06;;;;;;;5.93;4.47;;;1.60;81.20;;;;;;5026122;28;20505;-63
2022/12/30 07:00:33;;;;;;;4.97;3.80;;;1.70;81.40;;;;;;5030213;28;20447;-63
2022/12/30 07:02:58;;;;;;;7.47;4.70;;;1.60;81.50;;;;;;5030753;28;20426;-63
2022/12/30 07:05:24;;;;;;;8.17;4.07;;;1.70;81.40;;;;;;5026107;28;20478;-63
2022/12/30 07:07:50;;;;;;;8.33;5.20;;;1.70;81.50;;;;;;5021919;28;20261;-63
2022/12/30 07:10:16;;;;;;;7.23;4.30;;;1.80;81.60;;;;;;5025509;28;20196;-62
2022/12/30 07:12:42;;;;;;;5.97;3.83;;;1.90;81.30;;;;;;5013800;28;20199;-62
2022/12/30 07:15:08;;;;;;;5.00;3.90;;;1.90;81.20;;;;;;5025630;28;21260;-62
2022/12/30 07:17:34;;;;;;;6.17;3.47;;;2.00;81.20;;;;;;5018356;28;20195;-62
2022/12/30 07:19:59;;;;;;;8.23;4.33;;;2.10;81.00;;;;;;5021338;28;20508;-63
2022/12/30 07:22:25;;;;;;;6.10;3.70;;;2.20;80.70;;;;;;5018720;28;20223;-63
2022/12/30 07:24:51;;;;;;;4.47;3.30;;;2.20;80.50;;;;;;5023891;28;20190;-63
2022/12/30 07:27:16;;;;;;;7.73;3.77;;;2.30;80.30;;;;;;5015734;28;20241;-63
2022/12/30 07:29:42;;;;;;;6.10;4.03;;;2.40;80.00;;;;;;5015934;28;20227;-63
2022/12/30 07:32:09;;;;;;;7.30;5.20;;;2.40;80.00;;;;;;5007328;28;20192;-63
2022/12/30 07:34:36;;;;;;;6.07;4.07;;;2.50;79.70;;;;;;5016509;28;20218;-64
2022/12/30 07:37:03;;;;;;;6.27;4.20;;;2.50;79.10;;;;;;5013939;28;20439;-64
2022/12/30 07:39:30;;;;;;;6.97;4.83;;;2.50;79.60;;;;;;5016875;28;20469;-64
2022/12/30 07:41:56;;;;;;;8.20;5.00;;;2.50;79.60;;;;;;5040927;28;20524;-64
2022/12/30 07:44:22;;;;;;;7.53;5.63;;;2.60;79.70;;;;;;5031120;28;20547;-64
2022/12/30 07:46:47;;;;;;;6.53;4.63;;;2.70;79.70;;;;;;5026036;28;20484;-63
2022/12/30 07:49:13;;;;;;;6.87;5.30;;;2.70;79.50;;;;;;5034497;28;20233;-63
2022/12/30 07:51:39;;;;;;;6.80;4.90;;;2.80;79.00;;;;;;5025732;28;20191;-63
2022/12/30 07:54:05;;;;;;;8.33;4.70;;;2.80;78.30;;;;;;5019004;28;20248;-63
2022/12/30 07:56:31;;;;;;;5.07;4.23;;;2.90;77.70;;;;;;5025777;28;20214;-63
2022/12/30 07:58:58;;;;;;;6.77;4.87;;;2.90;77.60;;;;;;5017044;28;20225;-65
2022/12/30 08:01:25;;;;;;;6.53;5.20;;;3.00;75.80;;;;;;5021684;28;20244;-65
2022/12/30 08:03:50;;;;;;;6.73;4.30;;;3.10;76.40;;;;;;5035558;28;20450;-66
2022/12/30 08:06:18;;;;;;;8.83;4.33;;;3.10;76.30;;;;;;5018046;28;20482;-64
2022/12/30 08:08:45;;;;;;;5.50;4.17;;;3.20;75.90;;;;;;5021159;28;20205;-63
2022/12/30 08:11:11;;;;;;;6.30;4.37;;;3.30;75.80;;;;;;5010986;28;20426;-63
2022/12/30 08:13:39;;;;;;;5.67;4.47;;;3.30;75.80;;;;;;5024461;28;20430;-63
2022/12/30 08:16:06;;;;;;;5.93;4.23;;;3.30;75.90;;;;;;5027395;28;20421;-65
2022/12/30 08:18:32;;;;;;;6.73;5.00;;;3.30;75.70;;;;;;5030439;28;20446;-64
2022/12/30 08:21:03;;;;;;;5.97;3.73;;;3.30;75.40;;;;;;5043752;28;20416;-64
2022/12/30 08:23:29;;;;;;;8.50;4.70;;;3.30;75.60;;;;;;5025773;28;20282;-63
2022/12/30 08:25:55;;;;;;;4.60;3.83;;;3.30;75.30;;;;;;5015950;28;20423;-64
2022/12/30 08:28:21;;;;;;;6.30;4.43;;;3.30;75.50;;;;;;5025055;28;20470;-63
2022/12/30 08:30:47;;;;;;;6.33;4.53;;;3.40;75.70;;;;;;5009077;28;20442;-64
2022/12/30 08:33:13;;;;;;;6.47;4.73;;;3.40;75.90;;;;;;5020031;28;20196;-63
2022/12/30 08:35:38;;;;;;;5.53;4.40;;;3.30;76.50;;;;;;5021588;28;20184;-64
2022/12/30 08:38:04;;;;;;;5.53;3.73;;;3.40;76.60;;;;;;5023771;28;20215;-64
2022/12/30 08:40:33;;;;;;;5.50;3.90;;;3.40;76.20;;;;;;5030300;28;20195;-64
2022/12/30 08:43:00;;;;;;;5.67;3.83;;;3.50;76.40;;;;;;5017789;28;20199;-65
2022/12/30 08:45:26;;;;;;;6.10;4.07;;;3.50;76.30;;;;;;5032243;28;20452;-64
2022/12/30 08:47:52;;;;;;;5.90;4.63;;;3.50;76.30;;;;;;5027932;28;20512;-67
2022/12/30 08:50:18;;;;;;;5.57;4.33;;;3.50;76.50;;;;;;5045901;28;20471;-66
2022/12/30 08:52:43;;;;;;;6.10;3.87;;;3.50;76.60;;;;;;5015573;28;20188;-66
2022/12/30 08:55:09;;;;;;;5.40;4.27;;;3.60;76.60;;;;;;5032637;28;20199;-66
2022/12/30 08:57:39;;;;;;;6.43;4.47;;;3.60;76.60;;;;;;5020743;28;20198;-66
2022/12/30 09:00:06;;;;;;;5.37;4.40;;;3.60;76.60;;;;;;5044254;28;20286;-64
2022/12/30 09:02:35;;;;;;;7.77;4.83;;;3.60;76.60;;;;;;5004826;28;20449;-65
2022/12/30 09:05:01;;;;;;;6.73;4.53;;;3.70;76.70;;;;;;5002189;28;20427;-65
2022/12/30 09:07:27;;;;;;;4.60;3.67;;;3.70;76.80;;;;;;5019875;28;20480;-65
2022/12/30 09:09:52;;;;;;;6.50;4.47;;;3.90;76.80;;;;;;5026568;28;20189;-65
2022/12/30 09:12:18;;;;;;;4.70;3.27;;;3.90;76.20;;;;;;5026876;28;20186;-65
2022/12/30 09:14:44;;;;;;;4.27;3.73;;;4.10;76.20;;;;;;5025974;28;20198;-66
2022/12/30 09:17:11;;;;;;;6.23;4.40;;;4.20;75.90;;;;;;5024063;28;20278;-66
2022/12/30 09:19:36;;;;;;;6.47;4.40;;;4.30;74.50;;;;;;5025038;28;20426;-66
2022/12/30 09:22:02;;;;;;;5.90;4.60;;;4.50;75.00;;;;;;5014944;28;20496;-65
2022/12/30 09:24:28;;;;;;;8.30;6.00;;;4.50;72.90;;;;;;5015115;28;20218;-65
2022/12/30 09:26:53;;;;;;;8.57;5.63;;;4.70;71.20;;;;;;5025475;28;20310;-65
2022/12/30 09:29:19;;;;;;;11.20;7.80;;;4.80;70.30;;;;;;5014857;28;20192;-66
2022/12/30 09:31:45;;;;;;;14.33;8.43;;;4.90;69.90;;;;;;5016564;28;20188;-67
2022/12/30 09:34:12;;;;;;;11.50;7.90;;;5.00;68.80;;;;;;5005574;28;20187;-66
2022/12/30 09:36:38;;;;;;;10.97;7.70;;;5.00;69.40;;;;;;5024508;28;20195;-62
2022/12/30 09:39:03;;;;;;;11.20;7.27;;;5.00;68.40;;;;;;5026544;28;20438;-65
2022/12/30 09:45:01;;;;;;;11.80;7.97;;;5.00;69.30;;;;;;5024553;28;20202;-64
2022/12/30 09:47:30;;;;;;;9.57;6.90;;;4.90;68.40;;;;;;5013361;28;20459;-64
2022/12/30 09:50:12;;;;;;;10.23;7.33;;;5.00;69.20;;;;;;5033484;28;20505;-64
2022/12/30 09:52:58;;;;;;;9.00;6.90;;;5.00;69.70;;;;;;5039450;28;20439;-64
2022/12/30 09:55:42;;;;;;;12.83;7.23;;;5.10;69.60;;;;;;5031036;28;20430;-64
2022/12/30 09:58:12;;;;;;;10.03;7.30;;;5.30;69.30;;;;;;5027796;28;20457;-64
2022/12/30 10:00:37;;;;;;;8.97;6.00;;;5.30;71.40;;;;;;5033499;28;20433;-64
2022/12/30 10:03:27;;;;;;;13.17;7.10;;;5.40;71.40;;;;;;5023655;28;20446;-64
2022/12/30 10:06:13;;;;;;;8.70;6.93;;;5.50;71.70;;;;;;5026025;28;20254;-63
2022/12/30 10:08:54;;;;;;;10.10;7.57;;;5.50;69.10;;;;;;5027770;28;20439;-63
2022/12/30 10:11:34;;;;;;;12.00;7.70;;;5.60;68.70;;;;;;5025585;28;20436;-64
2022/12/30 10:14:22;;;;;;;9.43;7.60;;;5.60;68.70;;;;;;5016048;28;20502;-65
2022/12/30 10:17:12;;;;;;;11.20;8.07;;;5.70;68.40;;;;;;5037208;28;20445;-64
2022/12/30 10:19:59;;;;;;;10.60;7.60;;;5.80;68.40;;;;;;5023018;28;20483;-63
2022/12/30 10:23:06;;;;;;;11.47;7.73;;;5.90;67.90;;;;;;5028176;28;20445;-64
2022/12/30 10:25:31;;;;;;;13.13;7.83;;;6.00;68.80;;;;;;5013881;28;20426;-63
2022/12/30 10:27:58;;;;;;;8.80;7.17;;;6.10;67.70;;;;;;5023269;28;20473;-64
2022/12/30 10:30:40;;;;;;;12.93;7.53;;;6.20;68.70;;;;;;5027965;28;20190;-64
2022/12/30 10:33:13;;;;;;;11.03;8.50;;;6.30;68.20;;;;;;5045825;28;20666;-63
2022/12/30 10:35:40;;;;;;;9.27;8.27;;;6.40;68.70;;;;;;5025619;28;20428;-63
2022/12/30 10:38:13;;;;;;;13.93;8.60;;;6.40;67.10;;;;;;5018800;28;20454;-63
2022/12/30 10:41:00;;;;;;;11.73;8.60;;;6.50;66.10;;;;;;5030580;28;20448;-64
2022/12/30 10:43:45;;;;;;;9.20;6.53;;;6.50;66.70;;;;;;5035848;28;20474;-63
2022/12/30 10:46:35;;;;;;;10.13;7.30;;;6.50;66.70;;;;;;5025022;28;20441;-63
2022/12/30 10:49:16;;;;;;;10.60;6.70;;;6.60;65.90;;;;;;5020178;28;20480;-63
2022/12/30 10:51:41;;;;;;;8.87;5.53;;;6.70;65.80;;;;;;5027534;28;20430;-63
2022/12/30 10:54:09;;;;;;;8.43;6.40;;;6.80;65.50;;;;;;5019225;28;20443;-63
2022/12/30 10:56:36;;;;;;;6.47;5.40;;;6.80;65.50;;;;;;5018062;28;20199;-63
2022/12/30 10:59:14;;;;;;;5.43;4.40;;;6.80;65.40;;;;;;5012243;28;20482;-63
2022/12/30 11:01:43;;;;;;;7.50;5.27;;;6.90;65.00;;;;;;5028648;28;20190;-63
2022/12/30 11:04:37;;;;;;;8.77;5.63;;;7.00;64.80;;;;;;5022029;28;20191;-63
2022/12/30 11:07:06;;;;;;;10.53;6.07;;;7.00;64.80;;;;;;5042961;28;20478;-63
2022/12/30 11:09:32;;;;;;;7.67;6.20;;;7.20;63.70;;;;;;5044450;28;20501;-63
2022/12/30 11:14:56;;;;;;;7.60;5.40;;;7.20;64.20;;;;;;5027608;28;20211;-63
2022/12/30 11:17:26;;;;;;;7.37;5.93;;;7.30;63.50;;;;;;5013776;28;20195;-63
2022/12/30 11:19:54;;;;;;;6.27;5.03;;;7.50;62.50;;;;;;5031192;28;20178;-63
2022/12/30 11:22:22;;;;;;;5.40;4.67;;;7.50;63.30;;;;;;5042617;28;20190;-63
2022/12/30 11:25:17;;;;;;;5.60;4.80;;;7.60;63.60;;;;;;5022847;28;20198;-64
2022/12/30 11:27:48;;;;;;;6.90;4.90;;;7.60;62.90;;;;;;5039408;28;20204;-63
2022/12/30 11:30:33;;;;;;;7.30;4.97;;;7.80;62.50;;;;;;5021054;28;20197;-64
2022/12/30 11:33:03;;;;;;;7.13;5.60;;;7.80;63.30;;;;;;5021832;28;20180;-63
2022/12/30 11:35:42;;;;;;;8.33;5.17;;;7.90;63.00;;;;;;5026331;28;20441;-63
2022/12/30 11:38:30;;;;;;;10.30;7.30;;;7.90;63.00;;;;;;5016954;28;20184;-64
2022/12/30 11:40:56;;;;;;;6.10;5.03;;;8.00;64.00;;;;;;5019924;28;20215;-63
2022/12/30 11:43:22;;;;;;;7.37;5.90;;;8.00;65.00;;;;;;5013897;28;20223;-63
2022/12/30 11:46:03;;;;;;;8.90;6.20;;;8.00;64.80;;;;;;5027746;28;20195;-63
2022/12/30 11:48:49;;;;;;;6.77;5.47;;;8.00;65.00;;;;;;5030931;28;20214;-64
2022/12/30 11:51:28;;;;;;;11.60;7.00;;;8.00;66.70;;;;;;5032571;28;20194;-64
2022/12/30 11:54:11;;;;;;;10.37;7.77;;;7.90;67.20;;;;;;5028492;28;20192;-64
2022/12/30 11:57:03;;;;;;;11.83;8.43;;;7.80;65.20;;;;;;5021001;28;20184;-64
2022/12/30 11:59:44;;;;;;;11.67;7.70;;;7.70;64.80;;;;;;5006648;28;20453;-64
2022/12/30 12:02:19;;;;;;;10.83;7.23;;;7.70;64.40;;;;;;5031729;28;20184;-64
2022/12/30 12:04:44;;;;;;;9.60;6.73;;;7.80;64.20;;;;;;5031674;28;20198;-62
2022/12/30 12:07:16;;;;;;;10.40;6.80;;;7.80;64.80;;;;;;5029617;28;20714;-63
2022/12/30 12:10:23;;;;;;;9.80;5.37;;;7.70;65.40;;;;;;5024825;28;20262;-64
2022/12/30 12:12:57;;;;;;;8.53;5.93;;;7.80;63.40;;;;;;5019454;28;20431;-63
2022/12/30 12:15:29;;;;;;;6.47;4.57;;;7.80;65.20;;;;;;5028155;28;20199;-63
2022/12/30 12:17:59;;;;;;;6.73;4.70;;;7.80;64.90;;;;;;5023603;28;20218;-63
2022/12/30 12:20:43;;;;;;;6.97;4.70;;;7.80;63.60;;;;;;5048910;28;20193;-63
2022/12/30 12:23:20;;;;;;;7.97;5.00;;;7.80;63.80;;;;;;5012686;28;20666;-63
2022/12/30 12:25:54;;;;;;;6.87;4.20;;;7.90;64.20;;;;;;5034960;28;20188;-64
2022/12/30 12:28:21;;;;;;;7.87;5.47;;;7.90;64.70;;;;;;5028639;28;20246;-64
2022/12/30 12:31:01;;;;;;;7.30;5.00;;;7.90;63.30;;;;;;5014456;28;20241;-64
2022/12/30 12:33:51;;;;;;;6.80;4.10;;;8.00;64.00;;;;;;5027541;28;20310;-64
2022/12/30 12:36:35;;;;;;;10.53;6.70;;;8.00;64.20;;;;;;5049456;28;20190;-64
2022/12/30 12:39:03;;;;;;;10.73;7.00;;;8.10;64.00;;;;;;5035145;28;20187;-63
2022/12/30 12:41:58;;;;;;;9.33;6.27;;;8.20;64.50;;;;;;5031217;28;20643;-63
2022/12/30 12:44:39;;;;;;;8.63;6.10;;;8.30;65.20;;;;;;5018607;28;20197;-63
2022/12/30 12:47:15;;;;;;;8.70;5.73;;;8.40;64.70;;;;;;5015939;28;20692;-64
2022/12/30 12:50:04;;;;;;;8.23;6.10;;;8.50;65.20;;;;;;5022439;28;20187;-63
2022/12/30 12:52:50;;;;;;;9.67;6.73;;;8.60;62.40;;;;;;5037347;28;20195;-63
2022/12/30 12:55:57;;;;;;;9.93;6.63;;;8.50;62.20;;;;;;5018867;28;20202;-64
2022/12/30 12:58:36;;;;;;;7.90;6.57;;;8.50;63.30;;;;;;5005087;28;20192;-64
2022/12/30 13:01:24;;;;;;;6.30;4.97;;;8.40;61.30;;;;;;5036432;28;20183;-64
2022/12/30 13:04:00;;;;;;;7.37;5.20;;;8.50;61.40;;;;;;5041259;28;20651;-64
2022/12/30 13:06:47;;;;;;;7.73;5.13;;;8.40;62.40;;;;;;5021344;28;20570;-62
2022/12/30 13:09:32;;;;;;;9.40;5.20;;;8.30;62.50;;;;;;5020728;28;20192;-64
2022/12/30 13:12:17;;;;;;;6.47;4.73;;;8.40;62.20;;;;;;5031916;28;20187;-63
2022/12/30 13:14:57;;;;;;;6.30;4.43;;;8.40;61.90;;;;;;5033168;28;20189;-64
2022/12/30 13:17:54;;;;;;;7.80;4.30;;;8.40;60.90;;;;;;5021476;28;20196;-63
2022/12/30 13:20:28;;;;;;;8.93;4.87;;;8.40;61.00;;;;;;5024467;28;20288;-64
2022/12/30 13:23:02;;;;;;;6.73;4.53;;;8.30;61.70;;;;;;5024262;28;20222;-64
2022/12/30 13:25:32;;;;;;;7.90;4.57;;;8.30;62.10;;;;;;5020421;28;20196;-63
2022/12/30 13:28:00;;;;;;;6.10;4.13;;;8.40;62.40;;;;;;5031332;28;20207;-63
2022/12/30 13:30:34;;;;;;;7.40;4.30;;;8.40;63.00;;;;;;5023620;28;20191;-64
2022/12/30 13:33:21;;;;;;;4.23;3.40;;;8.50;64.10;;;;;;5021267;28;20182;-63
2022/12/30 13:35:56;;;;;;;7.00;4.30;;;8.50;64.10;;;;;;5029811;28;20208;-63
2022/12/30 13:38:31;;;;;;;5.37;4.10;;;8.50;64.20;;;;;;5034693;28;20191;-64
2022/12/30 13:41:02;;;;;;;6.20;4.30;;;8.40;61.40;;;;;;5034244;28;20186;-63
2022/12/30 13:43:46;;;;;;;6.70;4.77;;;8.30;61.00;;;;;;5031564;28;20191;-63
2022/12/30 13:46:36;;;;;;;8.47;4.40;;;8.30;61.80;;;;;;5030928;28;20192;-64
2022/12/30 13:49:29;;;;;;;8.00;4.87;;;8.30;63.30;;;;;;5015646;28;20283;-64
2022/12/30 13:52:18;;;;;;;6.50;4.20;;;8.30;62.60;;;;;;5015416;28;20192;-64
2022/12/30 13:54:50;;;;;;;7.40;4.80;;;8.30;63.60;;;;;;5025012;28;20226;-63
2022/12/30 13:57:30;;;;;;;6.20;3.70;;;8.30;64.20;;;;;;5038273;28;20229;-64
2022/12/30 14:00:26;;;;;;;5.43;3.83;;;8.20;63.90;;;;;;5019103;28;20187;-64
2022/12/30 14:02:59;;;;;;;4.87;3.87;;;8.20;64.20;;;;;;5017879;28;20187;-64
2022/12/30 14:05:37;;;;;;;6.17;3.70;;;8.20;64.00;;;;;;5017628;28;20251;-63
2022/12/30 14:08:25;;;;;;;6.50;3.80;;;8.20;63.40;;;;;;5022247;28;20256;-64
2022/12/30 14:10:59;;;;;;;6.90;4.47;;;8.20;63.00;;;;;;5021268;28;20183;-64
2022/12/30 14:13:30;;;;;;;6.90;4.87;;;8.20;64.40;;;;;;5022049;28;20298;-64
2022/12/30 14:15:56;;;;;;;5.13;4.07;;;8.30;64.50;;;;;;5040491;28;20203;-64